sensor_id;sensor_type;location;lat;lon;timestamp;P1;durP1;ratioP1;P2;durP2;ratioP2
13071;SDS011;6602;58.934;11.166;2023-04-25T00:01:47;9.50;;;7.20;;
13071;SDS011;6602;58.934;11.166;2023-04-25T00:06:50;12.77;;;8.07;;
13071;SDS011;6602;58.934;11.166;2023-04-25T00:11:52;12.03;;;8.17;;
13071;SDS011;6602;58.934;11.166;2023-04-25T00:16:57;11.33;;;8.67;;
13071;SDS011;6602;58.934;11.166;2023-04-25T00:22:00;9.93;;;7.33;;
13071;SDS011;6602;58.934;11.166;2023-04-25T00:27:04;10.83;;;8.17;;
13071;SDS011;6602;58.934;11.166;2023-04-25T00:32:07;11.03;;;8.63;;
13071;SDS011;6602;58.934;11.166;2023-04-25T00:37:11;13.03;;;8.50;;
13071;SDS011;6602;58.934;11.166;2023-04-25T00:42:15;10.27;;;8.33;;
13071;SDS011;6602;58.934;11.166;2023-04-25T00:47:16;11.57;;;8.17;;
13071;SDS011;6602;58.934;11.166;2023-04-25T00:52:22;11.40;;;8.50;;
13071;SDS011;6602;58.934;11.166;2023-04-25T00:57:23;10.47;;;8.17;;
13071;SDS011;6602;58.934;11.166;2023-04-25T01:02:28;10.50;;;8.50;;
13071;SDS011;6602;58.934;11.166;2023-04-25T01:07:30;12.70;;;9.00;;
13071;SDS011;6602;58.934;11.166;2023-04-25T01:12:32;12.03;;;8.60;;
13071;SDS011;6602;58.934;11.166;2023-04-25T01:17:35;11.00;;;8.37;;
13071;SDS011;6602;58.934;11.166;2023-04-25T01:22:37;12.80;;;8.97;;
13071;SDS011;6602;58.934;11.166;2023-04-25T01:27:44;13.60;;;8.73;;
13071;SDS011;6602;58.934;11.166;2023-04-25T01:32:46;12.07;;;9.47;;
13071;SDS011;6602;58.934;11.166;2023-04-25T01:37:51;14.23;;;9.10;;
13071;SDS011;6602;58.934;11.166;2023-04-25T01:42:53;13.43;;;9.10;;
13071;SDS011;6602;58.934;11.166;2023-04-25T01:47:57;13.03;;;9.97;;
13071;SDS011;6602;58.934;11.166;2023-04-25T01:53:02;10.80;;;8.67;;
13071;SDS011;6602;58.934;11.166;2023-04-25T01:58:04;12.63;;;8.67;;
13071;SDS011;6602;58.934;11.166;2023-04-25T02:03:17;10.90;;;7.93;;
13071;SDS011;6602;58.934;11.166;2023-04-25T02:08:18;10.77;;;8.33;;
13071;SDS011;6602;58.934;11.166;2023-04-25T02:13:22;11.73;;;8.80;;
13071;SDS011;6602;58.934;11.166;2023-04-25T02:18:23;10.27;;;8.07;;
13071;SDS011;6602;58.934;11.166;2023-04-25T02:23:25;8.83;;;7.33;;
13071;SDS011;6602;58.934;11.166;2023-04-25T02:28:28;9.93;;;7.60;;
13071;SDS011;6602;58.934;11.166;2023-04-25T02:33:29;9.60;;;7.10;;
13071;SDS011;6602;58.934;11.166;2023-04-25T02:38:33;10.27;;;7.67;;
13071;SDS011;6602;58.934;11.166;2023-04-25T02:43:34;9.47;;;7.27;;
13071;SDS011;6602;58.934;11.166;2023-04-25T02:48:38;11.80;;;7.30;;
13071;SDS011;6602;58.934;11.166;2023-04-25T02:53:39;10.23;;;7.80;;
13071;SDS011;6602;58.934;11.166;2023-04-25T02:58:42;10.20;;;7.60;;
13071;SDS011;6602;58.934;11.166;2023-04-25T03:03:47;9.60;;;8.07;;
13071;SDS011;6602;58.934;11.166;2023-04-25T03:08:48;11.80;;;8.17;;
13071;SDS011;6602;58.934;11.166;2023-04-25T03:13:52;10.10;;;7.37;;
13071;SDS011;6602;58.934;11.166;2023-04-25T03:18:53;12.83;;;7.53;;
13071;SDS011;6602;58.934;11.166;2023-04-25T03:23:56;10.73;;;7.53;;
13071;SDS011;6602;58.934;11.166;2023-04-25T03:28:57;10.17;;;7.43;;
13071;SDS011;6602;58.934;11.166;2023-04-25T03:33:58;13.40;;;7.77;;
13071;SDS011;6602;58.934;11.166;2023-04-25T03:39:02;11.33;;;7.50;;
13071;SDS011;6602;58.934;11.166;2023-04-25T03:44:03;9.97;;;7.33;;
13071;SDS011;6602;58.934;11.166;2023-04-25T03:49:08;10.70;;;7.57;;
13071;SDS011;6602;58.934;11.166;2023-04-25T03:54:12;11.20;;;7.47;;
13071;SDS011;6602;58.934;11.166;2023-04-25T03:59:13;14.27;;;8.60;;
13071;SDS011;6602;58.934;11.166;2023-04-25T04:04:18;10.50;;;8.10;;
13071;SDS011;6602;58.934;11.166;2023-04-25T04:09:19;9.67;;;7.10;;
13071;SDS011;6602;58.934;11.166;2023-04-25T04:14:24;10.67;;;7.57;;
13071;SDS011;6602;58.934;11.166;2023-04-25T04:19:26;8.83;;;6.97;;
13071;SDS011;6602;58.934;11.166;2023-04-25T04:24:28;9.47;;;6.50;;
13071;SDS011;6602;58.934;11.166;2023-04-25T04:29:29;8.47;;;6.33;;
13071;SDS011;6602;58.934;11.166;2023-04-25T04:34:30;10.30;;;6.70;;
13071;SDS011;6602;58.934;11.166;2023-04-25T04:39:40;8.07;;;5.37;;
13071;SDS011;6602;58.934;11.166;2023-04-25T04:44:43;11.07;;;5.80;;
13071;SDS011;6602;58.934;11.166;2023-04-25T04:49:47;5.97;;;4.57;;
13071;SDS011;6602;58.934;11.166;2023-04-25T04:54:48;4.90;;;3.50;;
13071;SDS011;6602;58.934;11.166;2023-04-25T04:59:52;3.77;;;3.03;;
13071;SDS011;6602;58.934;11.166;2023-04-25T05:04:53;3.73;;;2.43;;
13071;SDS011;6602;58.934;11.166;2023-04-25T05:09:56;3.83;;;2.70;;
13071;SDS011;6602;58.934;11.166;2023-04-25T05:14:59;4.40;;;2.97;;
13071;SDS011;6602;58.934;11.166;2023-04-25T05:20:00;9.73;;;4.27;;
13071;SDS011;6602;58.934;11.166;2023-04-25T05:25:05;8.63;;;2.57;;
13071;SDS011;6602;58.934;11.166;2023-04-25T05:30:07;4.77;;;2.07;;
13071;SDS011;6602;58.934;11.166;2023-04-25T05:35:09;2.60;;;1.80;;
13071;SDS011;6602;58.934;11.166;2023-04-25T05:40:13;3.13;;;2.13;;
13071;SDS011;6602;58.934;11.166;2023-04-25T05:45:14;2.70;;;2.23;;
13071;SDS011;6602;58.934;11.166;2023-04-25T05:55:21;3.53;;;2.20;;
13071;SDS011;6602;58.934;11.166;2023-04-25T06:00:27;3.47;;;2.10;;
13071;SDS011;6602;58.934;11.166;2023-04-25T06:05:32;2.23;;;1.80;;
13071;SDS011;6602;58.934;11.166;2023-04-25T06:10:33;3.80;;;2.20;;
13071;SDS011;6602;58.934;11.166;2023-04-25T06:15:37;3.33;;;2.63;;
13071;SDS011;6602;58.934;11.166;2023-04-25T06:20:44;3.47;;;2.57;;
13071;SDS011;6602;58.934;11.166;2023-04-25T06:25:48;4.53;;;2.93;;
13071;SDS011;6602;58.934;11.166;2023-04-25T06:30:49;3.60;;;3.20;;
13071;SDS011;6602;58.934;11.166;2023-04-25T06:35:53;3.67;;;2.80;;
13071;SDS011;6602;58.934;11.166;2023-04-25T06:40:54;5.80;;;2.77;;
13071;SDS011;6602;58.934;11.166;2023-04-25T06:51:05;3.00;;;2.40;;
13071;SDS011;6602;58.934;11.166;2023-04-25T06:56:06;4.03;;;3.13;;
13071;SDS011;6602;58.934;11.166;2023-04-25T07:01:09;4.93;;;2.50;;
13071;SDS011;6602;58.934;11.166;2023-04-25T07:06:10;2.80;;;2.10;;
13071;SDS011;6602;58.934;11.166;2023-04-25T07:11:14;2.50;;;2.00;;
13071;SDS011;6602;58.934;11.166;2023-04-25T07:16:15;2.40;;;2.20;;
13071;SDS011;6602;58.934;11.166;2023-04-25T07:21:16;2.87;;;2.07;;
13071;SDS011;6602;58.934;11.166;2023-04-25T07:26:20;2.20;;;2.00;;
13071;SDS011;6602;58.934;11.166;2023-04-25T07:31:21;2.40;;;1.83;;
13071;SDS011;6602;58.934;11.166;2023-04-25T07:36:26;2.53;;;1.50;;
13071;SDS011;6602;58.934;11.166;2023-04-25T07:41:27;1.67;;;1.40;;
13071;SDS011;6602;58.934;11.166;2023-04-25T07:46:31;1.73;;;1.40;;
13071;SDS011;6602;58.934;11.166;2023-04-25T07:51:35;1.43;;;1.33;;
13071;SDS011;6602;58.934;11.166;2023-04-25T07:56:36;1.60;;;1.50;;
13071;SDS011;6602;58.934;11.166;2023-04-25T08:01:40;1.87;;;1.30;;
13071;SDS011;6602;58.934;11.166;2023-04-25T08:06:41;1.77;;;1.47;;
13071;SDS011;6602;58.934;11.166;2023-04-25T08:11:48;1.50;;;1.40;;
13071;SDS011;6602;58.934;11.166;2023-04-25T08:16:50;1.43;;;1.33;;
13071;SDS011;6602;58.934;11.166;2023-04-25T08:21:53;1.40;;;1.10;;
13071;SDS011;6602;58.934;11.166;2023-04-25T08:26:55;1.40;;;1.30;;
13071;SDS011;6602;58.934;11.166;2023-04-25T08:31:59;1.23;;;1.10;;
13071;SDS011;6602;58.934;11.166;2023-04-25T08:37:03;2.00;;;1.10;;
13071;SDS011;6602;58.934;11.166;2023-04-25T08:42:06;1.10;;;1.00;;
13071;SDS011;6602;58.934;11.166;2023-04-25T08:47:13;1.17;;;1.07;;
13071;SDS011;6602;58.934;11.166;2023-04-25T08:52:15;1.10;;;1.00;;
13071;SDS011;6602;58.934;11.166;2023-04-25T08:57:22;0.80;;;0.80;;
13071;SDS011;6602;58.934;11.166;2023-04-25T09:02:24;0.70;;;0.70;;
13071;SDS011;6602;58.934;11.166;2023-04-25T09:07:25;0.60;;;0.60;;
13071;SDS011;6602;58.934;11.166;2023-04-25T09:12:32;0.80;;;0.80;;
13071;SDS011;6602;58.934;11.166;2023-04-25T09:17:33;0.80;;;0.80;;
13071;SDS011;6602;58.934;11.166;2023-04-25T09:22:35;1.40;;;1.00;;
13071;SDS011;6602;58.934;11.166;2023-04-25T09:27:48;0.83;;;0.70;;
13071;SDS011;6602;58.934;11.166;2023-04-25T09:32:54;1.53;;;0.97;;
13071;SDS011;6602;58.934;11.166;2023-04-25T09:37:58;0.77;;;0.73;;
13071;SDS011;6602;58.934;11.166;2023-04-25T09:42:59;0.53;;;0.40;;
13071;SDS011;6602;58.934;11.166;2023-04-25T09:48:03;0.60;;;0.60;;
13071;SDS011;6602;58.934;11.166;2023-04-25T09:53:10;1.80;;;0.50;;
13071;SDS011;6602;58.934;11.166;2023-04-25T09:58:11;0.43;;;0.43;;
13071;SDS011;6602;58.934;11.166;2023-04-25T10:03:18;1.40;;;0.47;;
13071;SDS011;6602;58.934;11.166;2023-04-25T10:08:23;0.40;;;0.40;;
13071;SDS011;6602;58.934;11.166;2023-04-25T10:13:26;0.43;;;0.43;;
13071;SDS011;6602;58.934;11.166;2023-04-25T10:18:29;0.33;;;0.30;;
13071;SDS011;6602;58.934;11.166;2023-04-25T10:23:31;0.70;;;0.30;;
13071;SDS011;6602;58.934;11.166;2023-04-25T10:33:59;0.30;;;0.30;;
13071;SDS011;6602;58.934;11.166;2023-04-25T10:39:04;0.40;;;0.40;;
13071;SDS011;6602;58.934;11.166;2023-04-25T10:44:14;0.40;;;0.40;;
13071;SDS011;6602;58.934;11.166;2023-04-25T10:49:37;0.40;;;0.40;;
13071;SDS011;6602;58.934;11.166;2023-04-25T10:54:55;0.40;;;0.40;;
13071;SDS011;6602;58.934;11.166;2023-04-25T11:00:00;0.60;;;0.60;;
13071;SDS011;6602;58.934;11.166;2023-04-25T11:05:15;0.60;;;0.60;;
13071;SDS011;6602;58.934;11.166;2023-04-25T11:10:24;0.80;;;0.70;;
13071;SDS011;6602;58.934;11.166;2023-04-25T11:15:31;2.10;;;0.60;;
13071;SDS011;6602;58.934;11.166;2023-04-25T11:20:32;0.60;;;0.60;;
13071;SDS011;6602;58.934;11.166;2023-04-25T11:25:39;1.23;;;0.57;;
13071;SDS011;6602;58.934;11.166;2023-04-25T11:30:47;0.63;;;0.63;;
13071;SDS011;6602;58.934;11.166;2023-04-25T11:35:58;0.70;;;0.70;;
13071;SDS011;6602;58.934;11.166;2023-04-25T11:41:03;0.80;;;0.40;;
13071;SDS011;6602;58.934;11.166;2023-04-25T11:46:19;0.47;;;0.47;;
13071;SDS011;6602;58.934;11.166;2023-04-25T11:51:20;0.90;;;0.77;;
13071;SDS011;6602;58.934;11.166;2023-04-25T11:56:33;0.57;;;0.57;;
13071;SDS011;6602;58.934;11.166;2023-04-25T12:01:34;0.70;;;0.70;;
13071;SDS011;6602;58.934;11.166;2023-04-25T12:06:41;0.60;;;0.60;;
13071;SDS011;6602;58.934;11.166;2023-04-25T12:11:47;0.90;;;0.57;;
13071;SDS011;6602;58.934;11.166;2023-04-25T12:16:49;0.93;;;0.30;;
13071;SDS011;6602;58.934;11.166;2023-04-25T12:21:51;0.37;;;0.37;;
13071;SDS011;6602;58.934;11.166;2023-04-25T12:26:53;0.67;;;0.53;;
13071;SDS011;6602;58.934;11.166;2023-04-25T12:32:03;0.40;;;0.40;;
13071;SDS011;6602;58.934;11.166;2023-04-25T12:37:04;0.37;;;0.37;;
13071;SDS011;6602;58.934;11.166;2023-04-25T12:42:05;0.33;;;0.33;;
13071;SDS011;6602;58.934;11.166;2023-04-25T12:47:08;0.20;;;0.20;;
13071;SDS011;6602;58.934;11.166;2023-04-25T12:52:09;0.30;;;0.30;;
13071;SDS011;6602;58.934;11.166;2023-04-25T12:57:10;0.20;;;0.20;;
13071;SDS011;6602;58.934;11.166;2023-04-25T13:02:11;0.33;;;0.20;;
13071;SDS011;6602;58.934;11.166;2023-04-25T13:07:12;0.40;;;0.30;;
13071;SDS011;6602;58.934;11.166;2023-04-25T13:12:13;0.20;;;0.20;;
13071;SDS011;6602;58.934;11.166;2023-04-25T13:17:15;0.33;;;0.33;;
13071;SDS011;6602;58.934;11.166;2023-04-25T13:22:20;0.67;;;0.30;;
13071;SDS011;6602;58.934;11.166;2023-04-25T13:27:21;0.17;;;0.17;;
13071;SDS011;6602;58.934;11.166;2023-04-25T13:32:23;0.43;;;0.30;;
13071;SDS011;6602;58.934;11.166;2023-04-25T13:37:24;0.30;;;0.23;;
13071;SDS011;6602;58.934;11.166;2023-04-25T13:42:26;0.67;;;0.20;;
13071;SDS011;6602;58.934;11.166;2023-04-25T13:47:27;0.77;;;0.60;;
13071;SDS011;6602;58.934;11.166;2023-04-25T13:52:28;0.23;;;0.23;;
13071;SDS011;6602;58.934;11.166;2023-04-25T13:57:33;0.20;;;0.20;;
13071;SDS011;6602;58.934;11.166;2023-04-25T14:02:35;0.17;;;0.17;;
13071;SDS011;6602;58.934;11.166;2023-04-25T14:07:37;0.20;;;0.20;;
13071;SDS011;6602;58.934;11.166;2023-04-25T14:12:42;0.20;;;0.20;;
13071;SDS011;6602;58.934;11.166;2023-04-25T14:17:43;0.30;;;0.30;;
13071;SDS011;6602;58.934;11.166;2023-04-25T14:22:46;0.20;;;0.20;;
13071;SDS011;6602;58.934;11.166;2023-04-25T14:27:47;0.20;;;0.20;;
13071;SDS011;6602;58.934;11.166;2023-04-25T14:32:55;0.30;;;0.30;;
13071;SDS011;6602;58.934;11.166;2023-04-25T14:37:56;0.20;;;0.20;;
13071;SDS011;6602;58.934;11.166;2023-04-25T14:42:57;0.20;;;0.20;;
13071;SDS011;6602;58.934;11.166;2023-04-25T14:47:58;0.23;;;0.23;;
13071;SDS011;6602;58.934;11.166;2023-04-25T14:52:59;0.17;;;0.17;;
13071;SDS011;6602;58.934;11.166;2023-04-25T14:58:00;0.30;;;0.30;;
13071;SDS011;6602;58.934;11.166;2023-04-25T15:03:09;0.20;;;0.20;;
13071;SDS011;6602;58.934;11.166;2023-04-25T15:08:13;0.53;;;0.30;;
13071;SDS011;6602;58.934;11.166;2023-04-25T15:13:14;0.30;;;0.30;;
13071;SDS011;6602;58.934;11.166;2023-04-25T15:18:15;0.30;;;0.30;;
13071;SDS011;6602;58.934;11.166;2023-04-25T15:23:17;0.60;;;0.60;;
13071;SDS011;6602;58.934;11.166;2023-04-25T15:28:21;0.63;;;0.43;;
13071;SDS011;6602;58.934;11.166;2023-04-25T15:33:25;0.80;;;0.50;;
13071;SDS011;6602;58.934;11.166;2023-04-25T15:38:26;0.50;;;0.50;;
13071;SDS011;6602;58.934;11.166;2023-04-25T15:43:27;0.40;;;0.40;;
13071;SDS011;6602;58.934;11.166;2023-04-25T15:48:28;0.50;;;0.47;;
13071;SDS011;6602;58.934;11.166;2023-04-25T15:53:33;0.70;;;0.50;;
13071;SDS011;6602;58.934;11.166;2023-04-25T15:58:37;1.17;;;0.60;;
13071;SDS011;6602;58.934;11.166;2023-04-25T16:03:40;0.50;;;0.50;;
13071;SDS011;6602;58.934;11.166;2023-04-25T16:08:41;0.83;;;0.70;;
13071;SDS011;6602;58.934;11.166;2023-04-25T16:13:42;1.17;;;0.97;;
13071;SDS011;6602;58.934;11.166;2023-04-25T16:18:44;1.00;;;0.87;;
13071;SDS011;6602;58.934;11.166;2023-04-25T16:23:47;1.13;;;0.73;;
13071;SDS011;6602;58.934;11.166;2023-04-25T16:28:51;1.13;;;1.00;;
13071;SDS011;6602;58.934;11.166;2023-04-25T16:33:52;1.00;;;0.90;;
13071;SDS011;6602;58.934;11.166;2023-04-25T16:38:53;1.13;;;0.80;;
13071;SDS011;6602;58.934;11.166;2023-04-25T16:43:57;1.30;;;1.00;;
13071;SDS011;6602;58.934;11.166;2023-04-25T16:48:57;1.50;;;1.10;;
13071;SDS011;6602;58.934;11.166;2023-04-25T16:53:59;1.00;;;0.90;;
13071;SDS011;6602;58.934;11.166;2023-04-25T16:59:03;0.80;;;0.80;;
13071;SDS011;6602;58.934;11.166;2023-04-25T17:04:04;1.03;;;0.90;;
13071;SDS011;6602;58.934;11.166;2023-04-25T17:09:04;0.93;;;0.90;;
13071;SDS011;6602;58.934;11.166;2023-04-25T17:14:08;1.60;;;0.80;;
13071;SDS011;6602;58.934;11.166;2023-04-25T17:19:09;1.43;;;0.80;;
13071;SDS011;6602;58.934;11.166;2023-04-25T17:24:10;0.70;;;0.60;;
13071;SDS011;6602;58.934;11.166;2023-04-25T17:29:11;0.80;;;0.70;;
13071;SDS011;6602;58.934;11.166;2023-04-25T17:34:12;0.87;;;0.80;;
13071;SDS011;6602;58.934;11.166;2023-04-25T17:39:17;3.40;;;0.70;;
13071;SDS011;6602;58.934;11.166;2023-04-25T17:44:19;0.80;;;0.67;;
13071;SDS011;6602;58.934;11.166;2023-04-25T17:49:20;0.80;;;0.80;;
13071;SDS011;6602;58.934;11.166;2023-04-25T17:54:21;1.00;;;0.80;;
13071;SDS011;6602;58.934;11.166;2023-04-25T17:59:22;0.80;;;0.70;;
13071;SDS011;6602;58.934;11.166;2023-04-25T18:04:23;0.83;;;0.70;;
13071;SDS011;6602;58.934;11.166;2023-04-25T18:09:24;0.70;;;0.70;;
13071;SDS011;6602;58.934;11.166;2023-04-25T18:14:26;0.80;;;0.80;;
13071;SDS011;6602;58.934;11.166;2023-04-25T18:19:27;0.63;;;0.63;;
13071;SDS011;6602;58.934;11.166;2023-04-25T18:24:30;0.87;;;0.83;;
13071;SDS011;6602;58.934;11.166;2023-04-25T18:29:32;1.30;;;1.00;;
13071;SDS011;6602;58.934;11.166;2023-04-25T18:34:37;1.17;;;0.63;;
13071;SDS011;6602;58.934;11.166;2023-04-25T18:39:40;0.83;;;0.73;;
13071;SDS011;6602;58.934;11.166;2023-04-25T18:44:42;0.60;;;0.60;;
13071;SDS011;6602;58.934;11.166;2023-04-25T18:49:43;0.90;;;0.70;;
13071;SDS011;6602;58.934;11.166;2023-04-25T18:54:47;0.67;;;0.60;;
13071;SDS011;6602;58.934;11.166;2023-04-25T18:59:48;0.90;;;0.70;;
13071;SDS011;6602;58.934;11.166;2023-04-25T19:04:49;0.80;;;0.70;;
13071;SDS011;6602;58.934;11.166;2023-04-25T19:09:50;0.90;;;0.60;;
13071;SDS011;6602;58.934;11.166;2023-04-25T19:14:55;1.10;;;0.80;;
13071;SDS011;6602;58.934;11.166;2023-04-25T19:19:56;1.17;;;0.90;;
13071;SDS011;6602;58.934;11.166;2023-04-25T19:24:57;0.90;;;0.70;;
13071;SDS011;6602;58.934;11.166;2023-04-25T19:29:58;0.63;;;0.63;;
13071;SDS011;6602;58.934;11.166;2023-04-25T19:35:07;0.93;;;0.73;;
13071;SDS011;6602;58.934;11.166;2023-04-25T19:40:09;1.23;;;0.87;;
13071;SDS011;6602;58.934;11.166;2023-04-25T19:45:13;1.00;;;0.80;;
13071;SDS011;6602;58.934;11.166;2023-04-25T19:50:14;0.73;;;0.73;;
13071;SDS011;6602;58.934;11.166;2023-04-25T19:55:15;1.10;;;0.90;;
13071;SDS011;6602;58.934;11.166;2023-04-25T20:00:19;1.30;;;1.00;;
13071;SDS011;6602;58.934;11.166;2023-04-25T20:05:21;1.10;;;1.00;;
13071;SDS011;6602;58.934;11.166;2023-04-25T20:10:22;1.23;;;0.80;;
13071;SDS011;6602;58.934;11.166;2023-04-25T20:15:23;1.10;;;0.83;;
13071;SDS011;6602;58.934;11.166;2023-04-25T20:20:25;3.03;;;1.10;;
13071;SDS011;6602;58.934;11.166;2023-04-25T20:25:27;2.23;;;1.20;;
13071;SDS011;6602;58.934;11.166;2023-04-25T20:30:30;1.17;;;1.00;;
13071;SDS011;6602;58.934;11.166;2023-04-25T20:35:31;2.00;;;1.00;;
13071;SDS011;6602;58.934;11.166;2023-04-25T20:40:33;1.77;;;1.20;;
13071;SDS011;6602;58.934;11.166;2023-04-25T20:45:37;1.57;;;1.23;;
13071;SDS011;6602;58.934;11.166;2023-04-25T20:50:38;2.10;;;1.10;;
13071;SDS011;6602;58.934;11.166;2023-04-25T20:55:40;2.13;;;1.40;;
13071;SDS011;6602;58.934;11.166;2023-04-25T21:00:41;1.20;;;1.10;;
13071;SDS011;6602;58.934;11.166;2023-04-25T21:05:43;1.43;;;1.00;;
13071;SDS011;6602;58.934;11.166;2023-04-25T21:10:46;1.40;;;1.10;;
13071;SDS011;6602;58.934;11.166;2023-04-25T21:15:47;1.40;;;1.23;;
13071;SDS011;6602;58.934;11.166;2023-04-25T21:20:47;1.20;;;0.90;;
13071;SDS011;6602;58.934;11.166;2023-04-25T21:25:48;1.27;;;1.17;;
13071;SDS011;6602;58.934;11.166;2023-04-25T21:30:51;1.10;;;1.00;;
13071;SDS011;6602;58.934;11.166;2023-04-25T21:35:51;1.13;;;0.83;;
13071;SDS011;6602;58.934;11.166;2023-04-25T21:40:52;1.20;;;1.10;;
13071;SDS011;6602;58.934;11.166;2023-04-25T21:45:55;1.20;;;1.10;;
13071;SDS011;6602;58.934;11.166;2023-04-25T21:50:59;2.07;;;1.00;;
13071;SDS011;6602;58.934;11.166;2023-04-25T21:56:00;1.30;;;1.00;;
13071;SDS011;6602;58.934;11.166;2023-04-25T22:01:01;0.90;;;0.87;;
13071;SDS011;6602;58.934;11.166;2023-04-25T22:06:03;1.00;;;0.90;;
13071;SDS011;6602;58.934;11.166;2023-04-25T22:11:04;1.00;;;0.90;;
13071;SDS011;6602;58.934;11.166;2023-04-25T22:16:07;3.27;;;1.17;;
13071;SDS011;6602;58.934;11.166;2023-04-25T22:21:11;1.10;;;0.93;;
13071;SDS011;6602;58.934;11.166;2023-04-25T22:26:14;1.20;;;1.07;;
13071;SDS011;6602;58.934;11.166;2023-04-25T22:31:15;0.80;;;0.80;;
13071;SDS011;6602;58.934;11.166;2023-04-25T22:36:17;2.00;;;1.20;;
13071;SDS011;6602;58.934;11.166;2023-04-25T22:41:19;1.23;;;1.00;;
13071;SDS011;6602;58.934;11.166;2023-04-25T22:46:20;1.23;;;1.07;;
13071;SDS011;6602;58.934;11.166;2023-04-25T22:51:21;1.10;;;0.90;;
13071;SDS011;6602;58.934;11.166;2023-04-25T22:56:25;1.20;;;0.80;;
13071;SDS011;6602;58.934;11.166;2023-04-25T23:01:28;1.00;;;0.90;;
13071;SDS011;6602;58.934;11.166;2023-04-25T23:06:30;1.10;;;1.00;;
13071;SDS011;6602;58.934;11.166;2023-04-25T23:11:32;0.93;;;0.80;;
13071;SDS011;6602;58.934;11.166;2023-04-25T23:16:34;1.50;;;1.00;;
13071;SDS011;6602;58.934;11.166;2023-04-25T23:21:37;1.07;;;0.97;;
13071;SDS011;6602;58.934;11.166;2023-04-25T23:26:40;0.77;;;0.77;;
13071;SDS011;6602;58.934;11.166;2023-04-25T23:31:42;2.93;;;1.57;;
13071;SDS011;6602;58.934;11.166;2023-04-25T23:36:43;1.40;;;1.03;;
13071;SDS011;6602;58.934;11.166;2023-04-25T23:41:44;1.30;;;0.97;;
13071;SDS011;6602;58.934;11.166;2023-04-25T23:46:45;1.00;;;0.90;;
13071;SDS011;6602;58.934;11.166;2023-04-25T23:51:46;1.77;;;1.10;;
13071;SDS011;6602;58.934;11.166;2023-04-25T23:56:47;1.20;;;1.10;;
